Time;durP1;ratioP1;P1;durP2;ratioP2;P2;SDS_P1;SDS_P2;PMS_P1;PMS_P2;Temp;Humidity;BMP_temperature;BMP_pressure;BME280_temperature;BME280_humidity;BME280_pressure;Samples;Min_cycle;Max_cycle;Signal;HPM_P1;HPM_P2
2021/10/13 00:01:42;;;;;;;1000.33;916.40;;;6.40;99.90;;;;;;5074253;28;20544;-89
2021/10/13 00:04:09;;;;;;;1001.77;918.60;;;6.40;99.90;;;;;;5074144;28;20451;-87
2021/10/13 00:06:37;;;;;;;995.30;913.80;;;6.50;99.90;;;;;;5074328;28;20524;-87
2021/10/13 00:09:04;;;;;;;991.90;912.03;;;6.50;99.90;;;;;;5074267;28;20451;-86
2021/10/13 00:11:33;;;;;;;978.67;900.13;;;6.50;99.90;;;;;;5072842;28;20482;-88
2021/10/13 00:14:01;;;;;;;965.10;886.70;;;6.40;99.90;;;;;;5073942;28;20458;-86
2021/10/13 00:16:30;;;;;;;979.90;900.63;;;6.30;99.90;;;;;;5074182;28;20504;-86
2021/10/13 00:18:58;;;;;;;971.17;894.07;;;6.20;99.90;;;;;;5073955;28;20809;-85
2021/10/13 00:21:25;;;;;;;978.93;900.03;;;6.20;99.90;;;;;;5073874;28;20508;-87
2021/10/13 00:23:53;;;;;;;977.77;897.57;;;6.00;99.90;;;;;;5073784;28;20492;-87
2021/10/13 00:26:20;;;;;;;995.27;916.13;;;5.90;99.90;;;;;;5073253;28;20577;-86
2021/10/13 00:28:47;;;;;;;1009.23;927.43;;;5.90;99.90;;;;;;5073221;28;20459;-86
2021/10/13 00:31:17;;;;;;;1003.93;921.73;;;5.90;99.90;;;;;;5073846;28;20537;-87
2021/10/13 00:33:44;;;;;;;999.80;916.90;;;5.90;99.90;;;;;;5073850;28;20451;-87
2021/10/13 00:36:11;;;;;;;991.47;907.60;;;5.80;99.90;;;;;;5073596;28;20538;-86
2021/10/13 00:38:38;;;;;;;990.60;903.70;;;5.90;99.90;;;;;;5073642;28;20520;-87
2021/10/13 00:41:07;;;;;;;990.37;904.00;;;5.80;99.90;;;;;;5073475;28;20443;-87
2021/10/13 00:43:34;;;;;;;1005.70;918.10;;;5.90;99.90;;;;;;5072437;28;20508;-87
2021/10/13 00:46:02;;;;;;;1007.93;920.53;;;5.90;99.90;;;;;;5073364;28;20573;-88
2021/10/13 00:48:30;;;;;;;1004.30;917.80;;;5.90;99.90;;;;;;5073641;28;20805;-86
2021/10/13 00:50:58;;;;;;;988.13;902.47;;;5.90;99.90;;;;;;5073334;28;20446;-87
2021/10/13 00:53:26;;;;;;;998.13;912.97;;;6.00;99.90;;;;;;5072631;28;20532;-88
2021/10/13 00:55:53;;;;;;;1009.40;924.90;;;6.00;99.90;;;;;;5073156;28;20546;-86
2021/10/13 00:58:24;;;;;;;1013.23;928.00;;;5.90;99.90;;;;;;5072028;28;20462;-86
2021/10/13 01:00:57;;;;;;;1013.60;927.80;;;5.80;99.90;;;;;;5073135;28;20455;-86
2021/10/13 01:03:33;;;;;;;1012.27;927.83;;;5.80;99.90;;;;;;5073318;28;20517;-86
2021/10/13 01:06:13;;;;;;;1021.83;936.93;;;5.80;99.90;;;;;;5072873;28;20583;-87
2021/10/13 01:08:52;;;;;;;1018.23;931.93;;;5.70;99.90;;;;;;5072980;28;20459;-85
2021/10/13 01:11:37;;;;;;;1016.83;930.33;;;5.70;99.90;;;;;;5073001;28;20470;-86
2021/10/13 01:14:26;;;;;;;1009.37;921.87;;;5.60;99.90;;;;;;5072885;28;20508;-86
2021/10/13 01:16:58;;;;;;;1016.30;930.00;;;5.70;99.90;;;;;;5072914;28;20845;-86
2021/10/13 01:19:48;;;;;;;1032.07;943.40;;;5.50;99.90;;;;;;5072945;28;20443;-86
2021/10/13 01:22:34;;;;;;;1005.47;916.90;;;5.60;99.90;;;;;;5072878;28;20446;-85
2021/10/13 01:25:08;;;;;;;1027.57;938.90;;;5.70;99.90;;;;;;5072742;28;20474;-86
2021/10/13 01:27:56;;;;;;;1031.87;944.20;;;5.90;99.90;;;;;;5071900;28;20493;-85
2021/10/13 01:30:24;;;;;;;1033.87;945.40;;;6.10;99.90;;;;;;5073038;28;20457;-86
2021/10/13 01:32:58;;;;;;;1024.33;935.73;;;6.00;99.90;;;;;;5072887;28;20806;-84
2021/10/13 01:35:29;;;;;;;1007.53;919.63;;;6.20;99.90;;;;;;5072792;28;20545;-86
2021/10/13 01:38:01;;;;;;;1034.60;946.70;;;6.10;99.90;;;;;;5072759;28;20482;-84
2021/10/13 01:40:31;;;;;;;1003.63;917.23;;;6.20;99.90;;;;;;5072779;28;20453;-86
2021/10/13 01:43:02;;;;;;;1000.53;913.77;;;6.50;99.90;;;;;;5071597;28;20450;-85
2021/10/13 01:45:29;;;;;;;1013.47;927.63;;;6.50;99.90;;;;;;5072462;28;21069;-85
2021/10/13 01:47:59;;;;;;;991.33;907.67;;;6.50;99.90;;;;;;5072677;28;20453;-86
2021/10/13 01:50:27;;;;;;;1011.57;929.17;;;6.50;99.90;;;;;;5072594;28;20942;-86
2021/10/13 01:52:55;;;;;;;998.93;915.80;;;6.40;99.90;;;;;;5072830;28;20470;-86
2021/10/13 01:55:25;;;;;;;994.20;912.20;;;6.50;99.90;;;;;;5072687;28;20450;-86
2021/10/13 01:57:57;;;;;;;1015.67;933.77;;;6.30;99.90;;;;;;5071331;28;20454;-85
2021/10/13 02:00:28;;;;;;;1000.30;918.60;;;6.30;99.90;;;;;;5072606;28;20536;-86
2021/10/13 02:02:56;;;;;;;988.13;907.07;;;6.40;99.90;;;;;;5072756;28;20858;-86
2021/10/13 02:05:24;;;;;;;991.17;909.03;;;6.20;99.90;;;;;;5075139;28;20517;-86
2021/10/13 02:07:56;;;;;;;1009.27;926.57;;;6.30;99.90;;;;;;5076577;28;20458;-86
2021/10/13 02:10:26;;;;;;;1021.00;937.43;;;6.10;99.90;;;;;;5076497;28;20454;-85
2021/10/13 02:12:58;;;;;;;1007.47;922.97;;;6.10;99.90;;;;;;5075051;28;20553;-86
2021/10/13 02:15:28;;;;;;;971.73;887.63;;;6.30;99.90;;;;;;5076520;28;20550;-86
2021/10/13 02:17:58;;;;;;;1001.90;918.60;;;6.40;99.90;;;;;;5076145;28;20555;-86
2021/10/13 02:20:27;;;;;;;999.63;915.83;;;6.40;99.90;;;;;;5076064;28;20949;-86
2021/10/13 02:22:57;;;;;;;970.03;886.97;;;6.70;99.90;;;;;;5076046;28;20542;-85
2021/10/13 02:25:24;;;;;;;964.07;881.73;;;6.70;99.90;;;;;;5075925;28;20543;-85
2021/10/13 02:28:00;;;;;;;963.20;882.00;;;6.70;99.90;;;;;;5075013;28;20511;-84
2021/10/13 02:30:28;;;;;;;960.17;881.20;;;6.90;99.90;;;;;;5076087;28;20450;-85
2021/10/13 02:32:55;;;;;;;953.23;875.43;;;6.90;99.90;;;;;;5075901;28;20791;-86
2021/10/13 02:35:22;;;;;;;955.83;879.63;;;7.00;99.90;;;;;;5076025;28;20529;-85
2021/10/13 02:37:50;;;;;;;947.40;873.87;;;6.90;99.90;;;;;;5075851;28;20541;-86
2021/10/13 02:40:17;;;;;;;940.10;866.80;;;6.90;99.90;;;;;;5075751;28;20541;-85
2021/10/13 02:42:44;;;;;;;948.83;876.50;;;6.90;99.90;;;;;;5074926;28;20466;-85
2021/10/13 02:45:11;;;;;;;943.07;870.43;;;6.90;99.90;;;;;;5067420;28;20480;-85
2021/10/13 02:47:42;;;;;;;940.00;868.77;;;6.90;99.90;;;;;;5075708;28;20872;-85
2021/10/13 02:50:14;;;;;;;941.87;870.90;;;6.90;99.90;;;;;;5073616;28;20446;-86
2021/10/13 02:52:50;;;;;;;940.77;870.80;;;7.00;99.90;;;;;;5075446;28;20553;-86
2021/10/13 02:55:20;;;;;;;944.20;875.10;;;7.00;99.90;;;;;;5075670;28;20455;-85
2021/10/13 02:57:53;;;;;;;961.27;891.47;;;6.90;99.90;;;;;;5074406;28;20451;-85
2021/10/13 03:00:22;;;;;;;962.30;892.97;;;6.80;99.90;;;;;;5075016;28;20470;-84
2021/10/13 03:02:56;;;;;;;967.53;898.23;;;6.90;99.90;;;;;;5075277;28;20450;-85
2021/10/13 03:05:25;;;;;;;945.27;878.10;;;6.80;99.90;;;;;;5075222;28;20490;-86
2021/10/13 03:07:58;;;;;;;944.83;878.37;;;6.80;99.90;;;;;;5075476;28;20512;-85
2021/10/13 03:10:26;;;;;;;951.23;885.23;;;6.80;99.90;;;;;;5075244;28;20512;-85
2021/10/13 03:12:57;;;;;;;933.63;867.53;;;6.70;99.90;;;;;;5074176;28;20477;-85
2021/10/13 03:15:25;;;;;;;931.07;866.23;;;6.70;99.90;;;;;;5074499;28;20546;-85
2021/10/13 03:17:56;;;;;;;933.57;868.90;;;6.60;99.90;;;;;;5075179;28;20497;-85
2021/10/13 03:20:24;;;;;;;946.87;881.43;;;6.50;99.90;;;;;;5075074;28;20513;-85
2021/10/13 03:22:55;;;;;;;961.17;892.60;;;6.50;99.90;;;;;;5075033;28;20462;-84
2021/10/13 03:25:23;;;;;;;968.43;898.70;;;6.50;99.90;;;;;;5074937;28;20506;-85
2021/10/13 03:27:50;;;;;;;979.43;907.47;;;6.50;99.90;;;;;;5073723;28;20949;-86
2021/10/13 03:30:17;;;;;;;966.30;892.63;;;6.50;99.90;;;;;;5074921;28;20450;-84
2021/10/13 03:32:44;;;;;;;970.03;895.23;;;6.70;99.90;;;;;;5074818;28;20541;-86
2021/10/13 03:35:21;;;;;;;987.70;912.80;;;6.70;99.90;;;;;;5074731;28;20443;-85
2021/10/13 03:37:48;;;;;;;969.50;894.87;;;6.90;99.90;;;;;;5074872;28;20450;-86
2021/10/13 03:40:15;;;;;;;952.60;880.20;;;6.80;99.90;;;;;;5074525;28;20553;-86
2021/10/13 03:42:41;;;;;;;951.90;880.20;;;6.80;99.90;;;;;;5073457;28;20447;-85
2021/10/13 03:45:12;;;;;;;971.40;899.80;;;6.80;99.90;;;;;;5074543;28;20450;-85
2021/10/13 03:47:39;;;;;;;969.20;898.03;;;6.80;99.90;;;;;;5074655;28;20552;-85
2021/10/13 03:50:08;;;;;;;970.50;899.80;;;6.70;99.90;;;;;;5074327;28;20493;-86
2021/10/13 03:52:37;;;;;;;965.60;895.73;;;6.80;99.90;;;;;;5074474;28;21074;-85
2021/10/13 03:55:06;;;;;;;972.47;902.50;;;6.70;99.90;;;;;;5074188;28;21482;-85
2021/10/13 03:57:33;;;;;;;969.00;899.00;;;6.60;99.90;;;;;;5073103;28;20988;-85
2021/10/13 04:00:00;;;;;;;969.30;900.67;;;6.60;99.90;;;;;;5074141;28;20479;-86
2021/10/13 04:02:27;;;;;;;975.37;906.70;;;6.40;99.90;;;;;;5074467;28;20450;-85
2021/10/13 04:04:54;;;;;;;968.67;899.73;;;6.50;99.90;;;;;;5074122;28;20544;-85
2021/10/13 04:07:21;;;;;;;977.03;907.47;;;6.30;99.90;;;;;;5073965;28;20569;-86
2021/10/13 04:09:50;;;;;;;958.77;889.90;;;6.20;99.90;;;;;;5073972;28;20504;-85
2021/10/13 04:12:17;;;;;;;979.50;909.17;;;6.10;99.90;;;;;;5072811;28;20493;-85
2021/10/13 04:14:44;;;;;;;986.43;912.97;;;5.80;99.90;;;;;;5073628;28;20478;-85
2021/10/13 04:17:11;;;;;;;994.50;917.70;;;6.00;99.90;;;;;;5074065;28;20478;-83
2021/10/13 04:19:37;;;;;;;999.93;921.40;;;5.80;99.90;;;;;;5073994;28;20442;-84
2021/10/13 04:22:05;;;;;;;999.60;919.67;;;6.00;99.90;;;;;;5067391;28;20817;-85
2021/10/13 04:24:31;;;;;;;993.57;912.40;;;5.90;99.90;;;;;;5068358;28;20465;-87
2021/10/13 04:27:00;;;;;;;990.97;908.60;;;6.00;99.90;;;;;;5071955;28;20525;-86
2021/10/13 04:29:27;;;;;;;1003.77;920.20;;;6.10;99.90;;;;;;5073678;28;20478;-84
2021/10/13 04:31:53;;;;;;;994.63;910.77;;;6.20;99.90;;;;;;5073611;28;20451;-86
2021/10/13 04:34:20;;;;;;;998.43;915.33;;;6.20;99.90;;;;;;5073733;28;20528;-81
2021/10/13 04:36:47;;;;;;;1009.27;925.00;;;6.30;99.90;;;;;;5073472;28;20827;-82
2021/10/13 04:39:14;;;;;;;1003.57;920.17;;;6.30;99.90;;;;;;5071074;28;20547;-85
2021/10/13 04:41:41;;;;;;;1009.17;926.97;;;6.20;99.90;;;;;;5068204;28;20520;-85
2021/10/13 04:44:09;;;;;;;995.83;913.43;;;6.30;99.90;;;;;;5073563;28;20956;-85
2021/10/13 04:46:36;;;;;;;992.53;910.70;;;6.30;99.90;;;;;;5073479;28;20569;-85
2021/10/13 04:49:03;;;;;;;990.70;911.07;;;6.20;99.90;;;;;;5073197;28;20933;-86
2021/10/13 04:51:34;;;;;;;996.77;914.97;;;6.20;99.90;;;;;;5063204;28;20561;-87
2021/10/13 04:54:01;;;;;;;990.40;907.50;;;6.20;99.90;;;;;;5073445;28;20557;-85
2021/10/13 04:56:31;;;;;;;989.23;906.33;;;6.20;99.90;;;;;;5072318;28;20553;-86
2021/10/13 04:59:00;;;;;;;1005.17;920.93;;;6.30;99.90;;;;;;5073264;28;20550;-85
2021/10/13 05:01:29;;;;;;;996.33;912.57;;;6.20;99.90;;;;;;5073262;28;20439;-86
2021/10/13 05:03:56;;;;;;;995.83;912.13;;;6.30;99.90;;;;;;5073023;28;20504;-84
2021/10/13 05:06:26;;;;;;;992.80;908.17;;;6.30;99.90;;;;;;5072977;28;21069;-85
2021/10/13 05:08:58;;;;;;;994.97;912.23;;;6.20;99.90;;;;;;5073058;28;20500;-85
2021/10/13 05:11:25;;;;;;;990.57;908.07;;;6.30;99.90;;;;;;5072541;28;20478;-83
2021/10/13 05:13:54;;;;;;;1009.97;925.50;;;6.30;99.90;;;;;;5072836;28;20450;-85
2021/10/13 05:16:21;;;;;;;1021.40;936.57;;;6.20;99.90;;;;;;5072686;28;20548;-85
2021/10/13 05:18:49;;;;;;;1019.00;934.50;;;6.10;99.90;;;;;;5073011;28;20458;-84
2021/10/13 05:21:16;;;;;;;1013.77;930.07;;;6.00;99.90;;;;;;5073146;28;20458;-84
2021/10/13 05:23:45;;;;;;;1011.13;927.43;;;5.90;99.90;;;;;;5072941;28;20891;-85
2021/10/13 05:26:12;;;;;;;1017.33;932.03;;;6.00;99.90;;;;;;5072770;28;20470;-85
2021/10/13 05:28:39;;;;;;;1017.63;932.43;;;5.90;99.90;;;;;;5071693;28;20553;-84
2021/10/13 05:31:06;;;;;;;1023.00;939.30;;;5.90;99.90;;;;;;5072818;28;20494;-86
2021/10/13 05:33:46;;;;;;;1024.23;941.00;;;5.90;99.90;;;;;;5072969;28;20455;-85
2021/10/13 05:36:16;;;;;;;1025.73;943.03;;;5.80;99.90;;;;;;5072871;28;20450;-85
2021/10/13 05:38:44;;;;;;;1042.10;954.07;;;5.80;99.90;;;;;;5075662;28;20454;-87
2021/10/13 05:41:17;;;;;;;1029.27;943.30;;;6.00;99.90;;;;;;5079354;28;20476;-85
2021/10/13 05:43:44;;;;;;;1015.27;931.77;;;5.90;99.90;;;;;;5078431;28;20454;-85
2021/10/13 05:46:11;;;;;;;1045.80;959.63;;;5.90;99.90;;;;;;5079341;28;20466;-84
2021/10/13 05:48:38;;;;;;;1040.07;956.70;;;5.90;99.90;;;;;;5079373;28;20819;-83
2021/10/13 05:51:13;;;;;;;1042.57;957.40;;;5.70;99.90;;;;;;5079037;28;20470;-85
2021/10/13 05:53:43;;;;;;;1043.53;958.33;;;5.90;99.90;;;;;;5079339;28;20450;-86
2021/10/13 05:56:10;;;;;;;1049.43;963.60;;;5.60;99.90;;;;;;5079444;28;20464;-85
2021/10/13 05:58:38;;;;;;;1042.57;955.67;;;5.60;99.90;;;;;;5077987;28;20506;-85
2021/10/13 06:01:07;;;;;;;1060.10;969.73;;;5.70;99.90;;;;;;5079153;28;21037;-84
2021/10/13 06:03:34;;;;;;;1046.80;959.60;;;5.70;99.90;;;;;;5069239;28;20479;-84
2021/10/13 06:06:01;;;;;;;1051.87;964.90;;;5.70;99.90;;;;;;5082655;28;20481;-84
2021/10/13 06:08:28;;;;;;;1051.83;966.17;;;5.70;99.90;;;;;;5079199;28;20806;-84
2021/10/13 06:10:56;;;;;;;1047.23;959.50;;;5.70;99.90;;;;;;5079109;28;20972;-85
2021/10/13 06:13:23;;;;;;;1037.27;950.47;;;5.70;99.90;;;;;;5077869;28;20450;-84
2021/10/13 06:15:52;;;;;;;1054.30;965.77;;;5.80;99.90;;;;;;5078790;28;20454;-86
2021/10/13 06:18:19;;;;;;;1056.23;966.80;;;5.70;99.90;;;;;;5079013;28;20465;-87
2021/10/13 06:20:45;;;;;;;1076.90;985.60;;;5.70;99.90;;;;;;5079145;28;20545;-86
2021/10/13 06:23:12;;;;;;;1070.43;978.67;;;5.80;99.90;;;;;;5079002;28;20541;-88
2021/10/13 06:25:41;;;;;;;1072.43;979.27;;;5.90;99.90;;;;;;5078918;28;20949;-86
2021/10/13 06:28:09;;;;;;;1073.70;982.67;;;6.10;99.90;;;;;;5077833;28;20568;-86
2021/10/13 06:30:37;;;;;;;1092.87;999.90;;;6.30;99.90;;;;;;5078889;28;20545;-85
2021/10/13 06:33:04;;;;;;;1063.90;973.93;;;6.50;99.90;;;;;;5078884;28;20451;-86
2021/10/13 06:35:31;;;;;;;1062.27;972.30;;;6.70;99.90;;;;;;5079059;28;20960;-85
2021/10/13 06:37:58;;;;;;;1072.57;982.30;;;6.80;99.90;;;;;;5078979;28;20468;-85
2021/10/13 06:40:25;;;;;;;1059.50;972.20;;;7.00;99.90;;;;;;5078869;28;21051;-85
2021/10/13 06:42:51;;;;;;;1056.73;969.33;;;7.20;99.90;;;;;;5077833;28;20511;-85
2021/10/13 06:45:20;;;;;;;1045.93;962.37;;;7.30;99.90;;;;;;5078954;28;20454;-86
2021/10/13 06:47:47;;;;;;;1043.23;959.43;;;7.50;99.90;;;;;;5078753;28;20565;-86
2021/10/13 06:50:13;;;;;;;1052.27;968.83;;;7.70;99.90;;;;;;5070785;28;20911;-87
2021/10/13 06:53:13;;;;;;;1005.90;928.97;;;7.80;99.90;;;;;;5071526;28;20490;-86
2021/10/13 06:55:42;;;;;;;1014.13;937.53;;;7.90;99.90;;;;;;5075418;28;20454;-86
2021/10/13 06:58:12;;;;;;;1004.70;929.90;;;7.90;99.90;;;;;;5074245;28;20487;-85
2021/10/13 07:00:40;;;;;;;993.97;922.27;;;8.10;99.90;;;;;;5075274;28;20500;-86
2021/10/13 07:03:08;;;;;;;957.93;890.73;;;8.20;99.90;;;;;;5075438;28;20461;-86
2021/10/13 07:05:35;;;;;;;905.27;846.13;;;8.30;99.90;;;;;;5075511;28;20459;-85
2021/10/13 07:08:02;;;;;;;920.30;860.90;;;8.30;99.90;;;;;;5075245;28;21049;-91
2021/10/13 07:10:32;;;;;;;929.90;869.50;;;8.20;99.90;;;;;;5075438;28;20451;-88
2021/10/13 07:13:27;;;;;;;892.33;836.67;;;8.30;99.90;;;;;;5074261;28;20822;-88
2021/10/13 07:15:59;;;;;;;885.03;831.43;;;8.40;99.90;;;;;;5069467;28;20465;-81
2021/10/13 07:18:46;;;;;;;;;;;;;;;;;;;;;
2021/10/13 07:21:13;;;;;;;898.30;843.30;;;8.30;99.90;;;;;;5074210;28;20453;-88
2021/10/13 07:23:40;;;;;;;838.03;787.77;;;8.40;99.90;;;;;;5075095;28;20542;-88
2021/10/13 07:26:24;;;;;;;898.67;843.60;;;8.30;99.90;;;;;;5075074;28;20459;-85
2021/10/13 07:28:51;;;;;;;837.13;787.27;;;8.40;99.90;;;;;;5068000;28;20783;-87
2021/10/13 07:31:21;;;;;;;785.40;739.27;;;8.40;99.90;;;;;;5074916;28;20454;-86
2021/10/13 07:33:51;;;;;;;757.20;714.47;;;8.40;99.90;;;;;;5074854;28;20450;-84
2021/10/13 07:36:19;;;;;;;737.77;695.93;;;8.40;99.90;;;;;;5074803;28;20525;-86
2021/10/13 07:38:47;;;;;;;767.33;722.50;;;8.60;99.90;;;;;;5074527;28;20461;-86
2021/10/13 07:41:15;;;;;;;721.13;680.80;;;8.70;99.90;;;;;;5074820;28;20283;-86
2021/10/13 07:43:42;;;;;;;702.63;663.23;;;8.80;99.90;;;;;;5073156;28;20991;-86
2021/10/13 07:46:11;;;;;;;621.10;588.50;;;8.80;99.90;;;;;;5074503;28;20451;-85
2021/10/13 07:48:51;;;;;;;527.73;502.30;;;8.90;99.90;;;;;;5074322;28;20896;-87
2021/10/13 07:51:21;;;;;;;578.90;549.47;;;9.00;99.90;;;;;;5073820;28;20457;-86
2021/10/13 07:53:48;;;;;;;645.23;611.50;;;9.20;99.90;;;;;;5074274;28;20451;-87
2021/10/13 07:56:18;;;;;;;612.93;581.40;;;9.30;99.90;;;;;;5074163;28;20512;-85
2021/10/13 07:58:47;;;;;;;531.73;505.73;;;9.40;99.90;;;;;;5072902;28;20520;-86
2021/10/13 08:01:14;;;;;;;582.93;552.50;;;9.70;99.90;;;;;;5065885;28;20451;-85
2021/10/13 08:03:44;;;;;;;478.50;456.20;;;9.70;99.90;;;;;;5073600;28;20522;-88
2021/10/13 08:06:11;;;;;;;401.33;383.40;;;9.90;99.90;;;;;;5074166;28;20958;-82
2021/10/13 08:08:41;;;;;;;361.33;345.70;;;10.00;99.90;;;;;;5074042;28;20478;-82
2021/10/13 08:11:08;;;;;;;348.10;332.80;;;10.00;99.90;;;;;;5074065;28;20515;-84
2021/10/13 08:13:35;;;;;;;308.67;295.70;;;10.20;99.90;;;;;;5072505;28;20455;-83
2021/10/13 08:16:03;;;;;;;281.17;270.00;;;10.20;99.90;;;;;;5073921;28;20458;-82
2021/10/13 08:18:30;;;;;;;203.50;194.93;;;10.30;99.90;;;;;;5073976;28;20454;-83
2021/10/13 08:20:58;;;;;;;165.40;158.03;;;10.20;99.90;;;;;;5073843;28;20462;-83
2021/10/13 08:23:25;;;;;;;155.80;149.10;;;10.20;99.90;;;;;;5073878;28;20458;-83
2021/10/13 08:25:58;;;;;;;172.33;164.43;;;10.20;99.90;;;;;;5073716;28;20458;-83
2021/10/13 08:28:26;;;;;;;132.27;126.73;;;10.10;99.90;;;;;;5072285;28;20576;-84
2021/10/13 08:30:57;;;;;;;85.13;80.77;;;10.30;99.90;;;;;;5073989;28;20454;-83
2021/10/13 08:33:27;;;;;;;81.63;77.00;;;10.40;99.90;;;;;;5073849;28;20443;-84
2021/10/13 08:35:57;;;;;;;120.47;115.07;;;10.30;99.90;;;;;;5073506;28;20949;-85
2021/10/13 08:38:34;;;;;;;122.13;115.87;;;10.40;99.90;;;;;;5073635;28;20783;-84
2021/10/13 08:41:01;;;;;;;156.50;149.67;;;10.40;99.90;;;;;;5073487;28;20460;-83
2021/10/13 08:43:28;;;;;;;126.17;120.30;;;10.60;99.90;;;;;;5072269;28;20446;-84
2021/10/13 08:45:55;;;;;;;123.57;117.47;;;10.80;99.90;;;;;;5073388;28;20458;-82
2021/10/13 08:48:24;;;;;;;61.10;57.30;;;10.90;99.90;;;;;;5073269;28;20482;-85
2021/10/13 08:50:53;;;;;;;69.80;64.93;;;10.80;99.90;;;;;;5073413;28;20479;-83
2021/10/13 08:53:30;;;;;;;38.73;35.73;;;11.00;99.90;;;;;;5073952;28;20478;-84
2021/10/13 08:55:57;;;;;;;69.07;65.07;;;10.80;99.90;;;;;;5073320;28;20454;-85
2021/10/13 08:58:29;;;;;;;73.30;68.73;;;10.80;99.90;;;;;;5071958;28;20482;-83
2021/10/13 09:01:09;;;;;;;60.63;56.33;;;11.10;99.90;;;;;;5073071;28;20551;-84
2021/10/13 09:03:44;;;;;;;39.13;36.00;;;11.40;99.90;;;;;;5073087;28;20455;-87
2021/10/13 09:06:17;;;;;;;37.23;33.73;;;11.30;99.90;;;;;;5072971;28;20461;-85
2021/10/13 09:09:02;;;;;;;25.60;23.17;;;11.80;99.90;;;;;;5072921;28;20474;-85
2021/10/13 09:11:44;;;;;;;27.00;24.90;;;11.70;99.80;;;;;;5072365;28;20446;-86
2021/10/13 09:14:17;;;;;;;27.80;25.43;;;11.60;98.30;;;;;;5072710;28;20451;-86
2021/10/13 09:17:02;;;;;;;20.80;17.40;;;11.90;98.70;;;;;;5073119;28;20485;-86
2021/10/13 09:19:53;;;;;;;23.70;21.20;;;12.00;97.00;;;;;;5073114;28;20451;-84
2021/10/13 09:22:26;;;;;;;18.90;17.13;;;12.10;97.60;;;;;;5072375;28;20454;-85
2021/10/13 09:28:26;;;;;;;18.80;15.80;;;12.20;95.60;;;;;;5046380;28;20477;-84
2021/10/13 09:30:54;;;;;;;25.90;17.40;;;12.10;95.30;;;;;;4995205;28;20460;-87
2021/10/13 09:36:33;;;;;;;14.40;13.00;;;12.20;94.50;;;;;;5047073;28;20447;-85
2021/10/13 09:39:21;;;;;;;16.30;12.43;;;12.50;92.90;;;;;;5052448;28;20463;-88
2021/10/13 09:42:13;;;;;;;14.10;9.73;;;12.90;93.20;;;;;;5062040;28;20458;-86
2021/10/13 09:44:41;;;;;;;14.43;9.50;;;13.50;86.80;;;;;;5072658;28;20452;-88
2021/10/13 09:47:10;;;;;;;15.50;9.50;;;13.80;81.90;;;;;;5072436;28;20944;-87
2021/10/13 09:49:41;;;;;;;18.57;10.37;;;14.30;77.60;;;;;;5072387;28;20503;-87
2021/10/13 09:52:18;;;;;;;17.67;9.00;;;14.60;75.30;;;;;;5072713;28;20461;-88
2021/10/13 09:54:57;;;;;;;13.93;8.40;;;14.90;71.60;;;;;;5072539;28;20490;-89
2021/10/13 09:57:26;;;;;;;11.70;8.13;;;15.00;71.70;;;;;;5071712;28;20551;-88
2021/10/13 10:00:28;;;;;;;12.80;6.53;;;15.60;70.30;;;;;;5072314;28;20911;-89
2021/10/13 10:02:58;;;;;;;11.87;7.50;;;15.80;64.90;;;;;;5072672;28;20480;-91
2021/10/13 10:05:35;;;;;;;9.73;6.43;;;15.80;60.10;;;;;;5073017;28;20462;-87
2021/10/13 10:08:21;;;;;;;20.70;8.70;;;15.90;60.30;;;;;;5072179;28;20473;-86
2021/10/13 10:28:00;;;;;;;10.87;0.70;;;17.00;50.40;;;;;;4907393;29;20601;-88
2021/10/13 10:30:51;;;;;;;;;;;;;;;;;;;;;
2021/10/13 10:33:57;;;;;;;11.40;0.70;;;17.20;47.20;;;;;;5033723;28;20458;-88
2021/10/13 10:40:09;;;;;;;23.70;0.90;;;16.30;52.10;;;;;;4909973;28;20454;-88
2021/10/13 10:43:16;;;;;;;20.90;0.90;;;16.50;52.40;;;;;;5032684;28;20465;-89
2021/10/13 10:45:58;;;;;;;21.83;0.90;;;17.20;47.30;;;;;;5045980;28;20513;-89
2021/10/13 10:48:53;;;;;;;20.20;0.90;;;17.40;50.60;;;;;;5055381;28;20488;-87
2021/10/13 10:55:12;;;;;;;;;;;;;;;;;;;;;
2021/10/13 10:58:43;;;;;;;;;;;;;;;;;;;;;
2021/10/13 11:04:26;;;;;;;26.80;1.00;;;14.10;62.90;;;;;;4917075;29;20466;-89
2021/10/13 11:10:28;;;;;;;27.03;1.70;;;13.70;72.50;;;;;;4916386;29;20554;-90
2021/10/13 11:12:59;;;;;;;25.00;1.20;;;13.10;90.70;;;;;;4972323;28;20486;-91
2021/10/13 11:15:27;;;;;;;26.30;1.60;;;12.40;82.30;;;;;;4993705;28;20553;-89
2021/10/13 11:18:02;;;;;;;26.80;2.60;;;12.10;90.70;;;;;;5040284;28;20439;-89
2021/10/13 11:20:29;;;;;;;28.87;3.27;;;11.90;94.40;;;;;;5075004;28;20454;-80
2021/10/13 11:23:02;;;;;;;25.10;1.90;;;11.90;94.70;;;;;;5074952;28;20541;-89
2021/10/13 11:25:56;;;;;;;24.80;1.70;;;11.90;90.10;;;;;;5074828;28;20987;-88
2021/10/13 11:28:27;;;;;;;24.70;1.80;;;11.90;90.20;;;;;;5074001;28;20553;-87
2021/10/13 11:30:56;;;;;;;25.90;2.83;;;11.90;88.50;;;;;;5074734;28;20459;-92
2021/10/13 11:33:24;;;;;;;26.03;6.07;;;12.00;91.20;;;;;;5074890;28;20791;-90
2021/10/13 11:35:59;;;;;;;27.20;6.63;;;12.30;93.90;;;;;;5074548;28;20454;-88
2021/10/13 11:38:31;;;;;;;24.97;2.90;;;12.50;93.80;;;;;;5074688;28;20461;-88
2021/10/13 11:41:11;;;;;;;25.60;2.30;;;13.00;89.30;;;;;;5074589;28;20524;-87
2021/10/13 11:50:10;;;;;;;24.60;1.00;;;14.80;71.10;;;;;;4991914;28;20490;-87
2021/10/13 11:55:43;;;;;;;24.50;0.90;;;15.30;62.80;;;;;;5065040;28;20454;-89
2021/10/13 11:58:39;;;;;;;24.20;1.00;;;14.80;67.60;;;;;;5073295;28;20463;-88
2021/10/13 12:08:53;;;;;;;22.50;1.00;;;14.20;72.90;;;;;;4839898;29;20489;-81
2021/10/13 12:14:59;;;;;;;16.47;0.90;;;15.30;60.90;;;;;;4776368;29;20890;-90
2021/10/13 12:17:39;;;;;;;22.13;1.00;;;15.00;64.20;;;;;;4823059;29;20958;-90
2021/10/13 12:20:32;;;;;;;22.70;0.90;;;15.20;65.70;;;;;;4841098;29;20474;-89
2021/10/13 12:23:30;;;;;;;23.03;0.90;;;15.20;59.00;;;;;;5019345;28;20823;-91
2021/10/13 12:29:39;;;;;;;21.60;0.83;;;16.80;53.80;;;;;;4959906;28;20867;-90
2021/10/13 12:53:28;;;;;;;;;;;;;;;;;;;;;
2021/10/13 12:56:02;;;;;;;9.23;3.47;;;15.60;44.90;;;;;;4958983;28;20464;-86
2021/10/13 12:58:43;;;;;;;7.60;3.60;;;15.50;46.30;;;;;;4988212;28;20481;-85
2021/10/13 13:04:15;;;;;;;14.07;3.77;;;15.20;49.60;;;;;;5014118;28;20476;-84
2021/10/13 13:10:51;;;;;;;14.87;2.37;;;14.90;50.10;;;;;;4925771;29;20526;-84
2021/10/13 13:16:29;;;;;;;1999.90;999.90;;;14.90;48.50;;;;;;4802248;29;20482;-89
2021/10/13 13:19:38;;;;;;;1999.90;999.90;;;15.30;45.40;;;;;;4858669;29;20943;-89
2021/10/13 13:22:11;;;;;;;1999.90;999.90;;;15.50;48.60;;;;;;4858714;28;21018;-84
2021/10/13 13:25:09;;;;;;;;;;;;;;;;;;;;;
2021/10/13 13:31:09;;;;;;;1999.90;999.90;;;14.70;48.30;;;;;;5038686;28;20931;-89
2021/10/13 14:25:37;;;;;;;71.40;4.67;;;13.70;54.90;;;;;;4810453;29;21045;-87
2021/10/13 14:37:02;;;;;;;5.03;2.27;;;13.60;56.70;;;;;;4784611;29;20550;-90
2021/10/13 14:39:54;;;;;;;11.80;3.70;;;13.30;59.20;;;;;;4869129;29;20465;-89
2021/10/13 14:42:25;;;;;;;7.13;2.20;;;13.60;61.50;;;;;;4916647;29;20496;-90
2021/10/13 14:44:56;;;;;;;12.27;2.70;;;13.60;61.30;;;;;;4934441;28;20520;-89
2021/10/13 14:47:26;;;;;;;8.30;2.87;;;13.80;60.70;;;;;;5017197;28;20480;-89
2021/10/13 14:49:59;;;;;;;19.63;4.03;;;14.00;59.60;;;;;;5035623;28;20487;-89
2021/10/13 14:52:30;;;;;;;13.50;3.10;;;14.10;58.70;;;;;;5035690;28;20458;-89
2021/10/13 14:54:59;;;;;;;8.03;2.93;;;14.10;55.60;;;;;;5035851;28;20452;-89
2021/10/13 14:57:28;;;;;;;9.83;2.53;;;14.00;55.50;;;;;;5034704;28;20510;-85
2021/10/13 14:59:56;;;;;;;7.93;2.47;;;14.30;53.30;;;;;;5045706;28;20833;-84
2021/10/13 15:02:25;;;;;;;5.70;1.93;;;14.50;53.40;;;;;;5055577;28;20455;-84
2021/10/13 15:05:35;;;;;;;;;;;;;;;;;;;;;
2021/10/13 15:08:07;;;;;;;11.23;1.70;;;14.60;56.60;;;;;;5046601;28;20475;-85
2021/10/13 15:10:40;;;;;;;13.30;2.77;;;14.10;55.60;;;;;;5055725;28;20497;-85
2021/10/13 15:13:08;;;;;;;5.07;2.53;;;13.90;55.40;;;;;;5053992;28;20993;-86
2021/10/13 15:15:43;;;;;;;5.53;2.00;;;13.90;57.00;;;;;;5056313;28;20451;-85
2021/10/13 15:18:35;;;;;;;7.37;3.23;;;13.80;60.10;;;;;;5055041;28;20466;-85
2021/10/13 15:21:10;;;;;;;10.10;4.13;;;13.50;56.90;;;;;;5051125;28;20456;-85
2021/10/13 15:23:45;;;;;;;6.70;3.23;;;13.40;56.40;;;;;;5054907;28;20462;-85
2021/10/13 15:26:15;;;;;;;9.83;3.33;;;13.20;60.00;;;;;;5055254;28;20459;-86
2021/10/13 15:29:00;;;;;;;12.50;3.13;;;13.20;59.40;;;;;;5053809;28;20455;-84
2021/10/13 15:32:02;;;;;;;10.97;3.87;;;13.20;63.90;;;;;;5054721;28;20514;-83